Time;durP1;ratioP1;P1;durP2;ratioP2;P2;SDS_P1;SDS_P2;PMS_P1;PMS_P2;Temp;Humidity;BMP_temperature;BMP_pressure;BME280_temperature;BME280_humidity;BME280_pressure;Samples;Min_cycle;Max_cycle;Signal;HPM_P1;HPM_P2
2024/04/20 00:02:08;;;;;;;3.95;2.35;;;;;;;9.06;58.35;98910.34;5171072;27;95113;-84
2024/04/20 00:04:34;;;;;;;3.45;2.80;;;;;;;8.91;58.27;98878.84;5200694;27;96696;-83
2024/04/20 00:06:59;;;;;;;3.80;2.60;;;;;;;8.96;58.05;98896.03;5169378;26;95490;-83
2024/04/20 00:09:25;;;;;;;5.22;2.72;;;;;;;8.92;58.72;98898.84;5206659;27;94656;-84
2024/04/20 00:11:50;;;;;;;3.35;2.28;;;;;;;8.82;58.57;98899.31;5234475;27;94579;-84
2024/04/20 00:14:16;;;;;;;4.47;2.85;;;;;;;8.59;59.42;98899.59;5234870;27;94649;-82
2024/04/20 00:16:41;;;;;;;4.10;2.80;;;;;;;8.39;59.94;98890.94;5234289;27;94638;-83
2024/04/20 00:19:07;;;;;;;4.05;2.65;;;;;;;8.32;59.59;98865.97;5234418;27;95350;-83
2024/04/20 00:21:32;;;;;;;2.72;2.33;;;;;;;8.46;59.88;98919.41;5234006;27;93756;-83
2024/04/20 00:23:58;;;;;;;4.93;3.03;;;;;;;8.42;59.78;98891.72;5236330;27;94547;-83
2024/04/20 00:26:23;;;;;;;3.45;2.40;;;;;;;8.41;59.58;98869.97;5224093;27;94520;-83
2024/04/20 00:28:49;;;;;;;2.83;2.30;;;;;;;8.30;59.28;98843.44;5222285;27;94646;-84
2024/04/20 00:31:14;;;;;;;2.88;2.22;;;;;;;8.61;59.48;98892.53;5177789;27;97252;-83
2024/04/20 00:33:40;;;;;;;3.35;2.35;;;;;;;8.46;59.15;98854.88;5206893;27;96460;-84
2024/04/20 00:36:05;;;;;;;4.30;2.47;;;;;;;8.72;59.44;98924.22;5234427;26;94758;-84
2024/04/20 00:38:31;;;;;;;3.58;2.22;;;;;;;8.80;58.99;98913.41;5235394;27;94592;-84
2024/04/20 00:40:57;;;;;;;5.18;2.55;;;;;;;8.69;58.91;98890.38;5171908;27;97344;-83
2024/04/20 00:43:23;;;;;;;2.38;2.05;;;;;;;8.60;59.43;98896.91;5200297;27;96493;-84
2024/04/20 00:45:51;;;;;;;4.55;2.63;;;;;;;8.70;59.35;98912.16;5191522;27;94587;-84
2024/04/20 00:48:17;;;;;;;4.15;2.88;;;;;;;8.63;59.41;98897.69;5234810;27;94653;-83
2024/04/20 00:50:43;;;;;;;4.15;2.58;;;;;;;8.91;59.07;98926.81;5205222;27;94574;-83
2024/04/20 00:53:12;;;;;;;4.03;2.58;;;;;;;8.98;58.69;98919.50;5219247;27;96538;-84
2024/04/20 00:55:38;;;;;;;3.20;2.63;;;;;;;8.91;59.02;98913.72;5206345;27;94569;-84
2024/04/20 00:58:07;;;;;;;2.83;2.25;;;;;;;8.87;58.71;98893.00;5235213;27;94716;-84
2024/04/20 01:00:35;;;;;;;5.10;2.90;;;;;;;9.06;58.60;98923.41;5206431;27;97454;-83
2024/04/20 01:03:01;;;;;;;4.55;2.58;;;;;;;8.84;58.73;98907.94;5206786;27;96545;-84
2024/04/20 01:05:27;;;;;;;3.20;2.55;;;;;;;9.00;58.77;98928.13;5177610;27;94434;-83
2024/04/20 01:07:52;;;;;;;4.57;3.05;;;;;;;9.01;58.49;98920.19;5201107;27;94706;-85
2024/04/20 01:10:18;;;;;;;3.65;2.72;;;;;;;9.00;58.74;98904.56;5205575;27;94570;-83
2024/04/20 01:12:43;;;;;;;3.00;2.22;;;;;;;9.05;58.37;98921.75;5200285;27;97938;-84
2024/04/20 01:15:09;;;;;;;2.95;2.67;;;;;;;8.70;58.42;98865.06;5197695;27;94585;-84
2024/04/20 01:17:34;;;;;;;3.35;2.50;;;;;;;9.12;58.27;98942.38;5155406;27;94758;-84
2024/04/20 01:20:00;;;;;;;4.13;2.33;;;;;;;9.03;58.60;98935.81;5177138;27;96944;-84
2024/04/20 01:22:27;;;;;;;5.10;4.25;;;;;;;8.99;58.42;98935.13;5234103;27;94594;-83
2024/04/20 01:24:55;;;;;;;3.08;2.53;;;;;;;9.07;58.79;98932.13;5234017;27;94626;-83
2024/04/20 01:27:20;;;;;;;5.25;2.72;;;;;;;8.91;58.98;98933.81;5178429;27;94730;-83
2024/04/20 01:29:46;;;;;;;3.15;2.58;;;;;;;9.04;58.84;98937.50;5199710;27;97473;-84
2024/04/20 01:32:11;;;;;;;3.53;2.67;;;;;;;9.17;58.58;98943.00;5225966;27;95292;-82
2024/04/20 01:34:37;;;;;;;3.10;2.65;;;;;;;9.13;58.61;98928.34;5200270;27;95116;-82
2024/04/20 01:37:02;;;;;;;3.05;2.15;;;;;;;9.02;58.41;98908.81;5202491;27;93581;-83
2024/04/20 01:39:28;;;;;;;3.58;2.42;;;;;;;8.96;58.08;98896.03;5174759;27;97554;-83
2024/04/20 01:41:53;;;;;;;4.10;2.47;;;;;;;9.10;58.14;98944.22;5199708;27;96239;-83
2024/04/20 01:44:19;;;;;;;3.38;2.42;;;;;;;9.18;57.90;98942.91;5199487;27;94761;-83
2024/04/20 01:46:44;;;;;;;3.47;2.50;;;;;;;9.20;58.04;98937.59;5206194;27;94668;-83
2024/04/20 01:49:10;;;;;;;3.60;2.90;;;;;;;9.14;57.52;98943.16;5204989;27;97038;-83
2024/04/20 01:51:35;;;;;;;3.17;2.35;;;;;;;8.99;57.81;98942.16;5194929;27;97391;-83
2024/04/20 01:54:01;;;;;;;3.03;2.40;;;;;;;8.96;57.85;98930.06;5164884;27;94631;-83
2024/04/20 01:56:27;;;;;;;3.45;2.80;;;;;;;8.95;57.61;98928.34;5205031;27;93494;-83
2024/04/20 01:58:53;;;;;;;3.40;2.78;;;;;;;8.79;57.80;98909.09;5233840;26;94647;-84
2024/04/20 02:01:18;;;;;;;3.13;2.63;;;;;;;8.88;57.66;98919.09;5204542;27;94606;-84
2024/04/20 02:03:44;;;;;;;4.50;3.05;;;;;;;8.98;57.80;98933.41;5234329;27;94567;-83
2024/04/20 02:06:09;;;;;;;3.40;2.85;;;;;;;8.93;57.62;98935.44;5199606;27;93590;-83
2024/04/20 02:08:35;;;;;;;3.60;2.97;;;;;;;9.23;57.72;98966.25;5205471;27;97185;-84
2024/04/20 02:11:00;;;;;;;2.97;2.60;;;;;;;9.24;57.68;98960.91;5205011;27;97795;-84
2024/04/20 02:13:26;;;;;;;3.70;2.97;;;;;;;9.17;57.72;98971.78;5233699;27;94597;-83
2024/04/20 02:15:53;;;;;;;3.88;2.80;;;;;;;9.06;57.76;98974.94;5199406;27;94539;-84
2024/04/20 02:18:19;;;;;;;4.75;3.10;;;;;;;9.01;58.27;98971.69;5192001;27;97858;-84
2024/04/20 02:20:44;;;;;;;5.43;2.97;;;;;;;9.10;58.02;98959.91;5203629;27;96971;-84
2024/04/20 02:23:10;;;;;;;3.55;3.25;;;;;;;8.77;57.85;98893.47;5233720;27;94613;-84
2024/04/20 02:25:36;;;;;;;2.90;2.55;;;;;;;9.25;57.73;98974.84;5202619;27;95893;-83
2024/04/20 02:28:01;;;;;;;3.97;3.08;;;;;;;9.34;57.64;98978.78;5233623;27;94469;-84
2024/04/20 02:30:27;;;;;;;4.13;3.08;;;;;;;9.01;58.39;98950.75;5171103;27;97556;-83
2024/04/20 02:32:53;;;;;;;3.88;3.15;;;;;;;8.94;58.97;98955.44;5211418;27;94541;-84
2024/04/20 02:35:19;;;;;;;4.35;3.20;;;;;;;9.10;59.12;98979.09;5205260;27;94606;-85
2024/04/20 02:37:44;;;;;;;4.60;3.38;;;;;;;9.26;58.89;98989.66;5197980;27;97689;-85
2024/04/20 02:40:10;;;;;;;5.00;3.15;;;;;;;9.27;58.73;99000.03;5215992;27;94591;-84
2024/04/20 02:42:35;;;;;;;19.15;6.00;;;;;;;9.13;59.08;98972.84;5232938;27;94608;-85
2024/04/20 02:45:02;;;;;;;5.60;4.28;;;;;;;9.26;59.02;98981.81;5204727;27;94453;-84
2024/04/20 02:47:27;;;;;;;6.28;3.63;;;;;;;9.32;59.47;98983.28;5177075;27;97615;-83
2024/04/20 02:49:53;;;;;;;5.30;3.47;;;;;;;8.94;59.89;98934.50;5230924;27;94671;-84
2024/04/20 02:52:18;;;;;;;4.10;3.20;;;;;;;9.09;60.67;98979.19;5233116;27;94572;-84
2024/04/20 02:54:44;;;;;;;3.75;3.35;;;;;;;9.25;60.93;98999.28;5232743;27;94680;-86
2024/04/20 02:57:10;;;;;;;3.67;3.30;;;;;;;9.14;60.68;98970.16;5204552;27;95937;-85
2024/04/20 02:59:36;;;;;;;5.32;3.50;;;;;;;8.94;61.69;98983.38;5232631;27;94684;-84
2024/04/20 03:02:01;;;;;;;3.92;3.30;;;;;;;9.10;62.24;99002.63;5204845;27;94530;-85
2024/04/20 03:04:27;;;;;;;3.30;3.00;;;;;;;8.70;62.61;98951.41;5233048;27;94626;-84
2024/04/20 03:06:52;;;;;;;3.83;3.40;;;;;;;8.80;62.52;98956.09;5231978;27;94448;-84
2024/04/20 03:09:18;;;;;;;3.58;3.13;;;;;;;9.13;63.05;98999.88;5214657;26;94647;-83
2024/04/20 03:11:43;;;;;;;4.22;3.58;;;;;;;9.03;62.73;98983.78;5235260;27;94468;-85
2024/04/20 03:14:09;;;;;;;4.07;3.45;;;;;;;8.69;63.13;98955.78;5236108;26;94622;-84
2024/04/20 03:16:34;;;;;;;3.63;3.33;;;;;;;9.01;63.17;99006.56;5235120;27;96256;-84
2024/04/20 03:19:00;;;;;;;4.15;3.70;;;;;;;9.01;63.65;99016.19;5228584;27;94471;-85
2024/04/20 03:21:25;;;;;;;4.93;3.55;;;;;;;9.00;63.29;99010.09;5201942;27;94586;-85
2024/04/20 03:23:51;;;;;;;4.95;3.72;;;;;;;9.10;63.63;99020.13;5229090;26;94611;-85
2024/04/20 03:26:16;;;;;;;4.25;3.85;;;;;;;8.70;63.55;98965.34;5201716;27;96486;-85
2024/04/20 03:28:42;;;;;;;4.38;3.85;;;;;;;9.03;64.00;99036.13;5225848;26;95603;-85
2024/04/20 03:31:07;;;;;;;4.32;3.83;;;;;;;8.95;64.17;99030.41;5200389;27;94609;-85
2024/04/20 03:33:35;;;;;;;4.90;3.80;;;;;;;8.94;64.36;99027.88;5193902;27;94601;-86
2024/04/20 03:36:00;;;;;;;4.53;4.00;;;;;;;8.93;64.45;99034.00;5174359;27;97957;-85
2024/04/20 03:38:26;;;;;;;5.30;4.40;;;;;;;8.78;64.43;99010.28;5218646;27;94564;-86
2024/04/20 03:40:52;;;;;;;4.65;4.15;;;;;;;8.90;64.45;99021.94;5176587;27;94687;-86
2024/04/20 03:43:17;;;;;;;5.80;3.92;;;;;;;9.03;64.72;99049.22;5236211;26;93638;-85
2024/04/20 03:45:50;;;;;;;4.53;4.07;;;;;;;9.03;64.57;99053.63;5207154;27;94523;-86
2024/04/20 03:48:16;;;;;;;4.50;4.07;;;;;;;9.02;64.79;99050.16;5158587;27;97926;-86
2024/04/20 03:50:53;;;;;;;5.05;4.40;;;;;;;9.00;64.43;99035.44;5206806;27;94720;-86
2024/04/20 03:53:20;;;;;;;4.63;4.20;;;;;;;8.94;64.95;99041.81;5208499;27;93632;-86
2024/04/20 03:55:46;;;;;;;5.53;4.50;;;;;;;8.88;65.06;99026.41;5207793;27;97331;-86
2024/04/20 03:58:11;;;;;;;5.97;5.38;;;;;;;8.55;64.88;98969.53;5242264;27;94570;-87
2024/04/20 04:00:37;;;;;;;4.72;4.00;;;;;;;8.71;65.18;99003.66;5219468;27;94662;-87
2024/04/20 04:03:02;;;;;;;5.85;4.07;;;;;;;9.04;65.07;99055.28;5205815;27;93692;-86
2024/04/20 04:05:28;;;;;;;5.38;4.78;;;;;;;8.93;64.99;99040.13;5237947;27;94578;-86
2024/04/20 04:07:53;;;;;;;5.53;4.95;;;;;;;9.17;65.15;99072.13;5184704;27;94553;-85
2024/04/20 04:10:19;;;;;;;5.00;4.47;;;;;;;9.13;65.10;99064.47;5210026;26;94416;-86
2024/04/20 04:12:44;;;;;;;5.68;4.65;;;;;;;9.17;65.37;99071.28;5238203;27;93914;-87
2024/04/20 04:15:10;;;;;;;5.05;4.55;;;;;;;9.07;65.29;99048.16;5211352;27;94586;-86
2024/04/20 04:17:36;;;;;;;6.10;4.30;;;;;;;9.09;65.81;99066.41;5235787;27;94575;-86
2024/04/20 04:20:01;;;;;;;4.30;3.90;;;;;;;9.18;65.38;99078.22;5212140;27;94583;-87
2024/04/20 04:22:28;;;;;;;4.50;3.45;;;;;;;9.22;65.51;99090.22;5232384;26;93580;-87
2024/04/20 04:24:54;;;;;;;3.55;3.13;;;;;;;9.24;65.32;99086.59;5189959;27;94587;-86
2024/04/20 04:27:19;;;;;;;3.35;3.05;;;;;;;9.34;64.87;99100.13;5197342;27;94671;-87
2024/04/20 04:29:45;;;;;;;2.72;2.50;;;;;;;9.30;64.62;99093.31;5215965;27;95188;-87
2024/04/20 04:32:10;;;;;;;6.07;3.08;;;;;;;9.29;64.52;99076.75;5235271;27;93695;-86
2024/04/20 04:34:37;;;;;;;3.50;2.70;;;;;;;9.39;64.52;99094.66;5235356;27;95188;-86
2024/04/20 04:37:03;;;;;;;6.68;2.85;;;;;;;9.38;64.69;99104.28;5174207;27;96302;-85
2024/04/20 04:39:28;;;;;;;3.78;2.80;;;;;;;9.08;64.61;99059.47;5204385;27;94591;-86
2024/04/20 04:41:54;;;;;;;2.83;2.30;;;;;;;9.26;64.22;99076.91;5235260;27;94651;-86
2024/04/20 04:44:19;;;;;;;3.33;2.38;;;;;;;9.57;63.76;99092.91;5236146;27;94552;-86
2024/04/20 04:46:45;;;;;;;2.50;1.80;;;;;;;9.61;63.17;99113.66;5207068;27;94592;-86
2024/04/20 04:49:10;;;;;;;2.00;1.60;;;;;;;9.73;63.32;99106.94;5234764;26;94567;-86
2024/04/20 04:51:36;;;;;;;2.75;1.75;;;;;;;9.85;62.58;99110.72;5206995;27;94802;-87
2024/04/20 04:54:01;;;;;;;3.53;1.65;;;;;;;9.90;62.00;99093.84;5235299;27;94434;-87
2024/04/20 04:56:27;;;;;;;2.10;1.60;;;;;;;10.17;61.71;99115.16;5206489;27;96349;-86
2024/04/20 04:58:56;;;;;;;2.03;1.55;;;;;;;9.94;62.02;99097.16;5235590;26;94544;-88
2024/04/20 05:01:21;;;;;;;2.40;1.30;;;;;;;9.91;61.87;99100.78;5207996;27;93566;-87
2024/04/20 05:03:47;;;;;;;2.60;1.55;;;;;;;10.17;61.77;99130.06;5201575;27;94603;-87
2024/04/20 05:06:13;;;;;;;2.22;1.42;;;;;;;10.20;62.22;99145.63;5191216;27;97256;-86
2024/04/20 05:08:38;;;;;;;2.67;1.40;;;;;;;10.13;62.37;99139.03;5177758;27;94783;-86
2024/04/20 05:11:04;;;;;;;2.92;1.40;;;;;;;9.79;62.60;99108.41;5234843;27;94642;-88
2024/04/20 05:13:29;;;;;;;3.42;1.42;;;;;;;9.81;62.63;99127.53;5206739;27;97354;-87
2024/04/20 05:15:55;;;;;;;2.67;1.50;;;;;;;9.60;62.67;99114.56;5234415;27;97480;-87
2024/04/20 05:18:23;;;;;;;2.05;1.10;;;;;;;9.75;62.84;99147.03;5186893;27;94561;-87
2024/04/20 05:20:49;;;;;;;2.92;1.42;;;;;;;9.60;62.81;99111.97;5233197;27;93467;-86
2024/04/20 05:23:15;;;;;;;2.75;1.40;;;;;;;9.76;63.19;99148.72;5235008;27;94528;-87
2024/04/20 05:25:42;;;;;;;1.45;1.20;;;;;;;9.82;62.75;99161.53;5234970;27;94627;-88
2024/04/20 05:28:07;;;;;;;1.38;1.27;;;;;;;9.75;62.99;99160.13;5202037;27;94991;-88
2024/04/20 05:30:33;;;;;;;3.42;1.70;;;;;;;9.97;62.62;99158.13;5215257;27;96387;-87
2024/04/20 05:32:58;;;;;;;2.40;1.40;;;;;;;10.05;62.02;99162.16;5233127;27;94953;-87
2024/04/20 05:35:24;;;;;;;2.00;1.40;;;;;;;10.17;61.37;99151.03;5203667;27;94855;-85
2024/04/20 05:37:50;;;;;;;4.38;1.73;;;;;;;10.16;61.13;99107.41;5229339;27;94582;-87
2024/04/20 05:40:15;;;;;;;3.08;1.35;;;;;;;10.58;60.59;99169.09;5203640;27;94886;-87
2024/04/20 05:42:41;;;;;;;1.77;1.10;;;;;;;10.01;61.19;99101.16;5199176;27;97280;-87
2024/04/20 05:45:07;;;;;;;1.85;1.50;;;;;;;10.14;61.46;99156.44;5232103;27;94685;-86
2024/04/20 05:47:32;;;;;;;3.17;1.70;;;;;;;10.34;61.91;99161.56;5232517;27;94643;-87
2024/04/20 05:49:58;;;;;;;3.30;1.55;;;;;;;10.49;61.23;99185.31;5198332;27;94711;-87
2024/04/20 05:52:23;;;;;;;3.60;1.55;;;;;;;10.18;61.41;99150.09;5231573;27;94489;-87
2024/04/20 05:54:49;;;;;;;5.50;2.00;;;;;;;10.62;60.88;99165.38;5228130;27;94704;-86
2024/04/20 05:57:15;;;;;;;2.13;1.63;;;;;;;10.85;60.18;99188.66;5218833;27;94699;-86
2024/04/20 05:59:40;;;;;;;3.28;1.50;;;;;;;10.82;59.79;99182.69;5202198;27;93785;-86
2024/04/20 06:02:06;;;;;;;1.80;1.40;;;;;;;11.17;59.30;99193.94;5176392;27;97592;-85
2024/04/20 06:04:31;;;;;;;3.58;2.03;;;;;;;11.35;59.11;99172.84;5230525;26;94674;-85
2024/04/20 06:06:58;;;;;;;3.10;1.60;;;;;;;11.70;58.17;99198.00;5229002;26;94697;-86
2024/04/20 06:09:24;;;;;;;7.47;2.20;;;;;;;11.46;58.02;99179.22;5231107;27;95961;-84
2024/04/20 06:11:49;;;;;;;3.55;1.90;;;;;;;11.39;58.52;99205.91;5231953;27;94768;-85
2024/04/20 06:14:15;;;;;;;2.15;1.50;;;;;;;11.03;58.89;99206.97;5180512;27;97101;-85
2024/04/20 06:16:40;;;;;;;3.22;1.63;;;;;;;10.71;59.33;99185.91;5224206;27;94729;-86
2024/04/20 06:19:06;;;;;;;2.58;1.80;;;;;;;10.69;59.46;99168.53;5231831;27;94664;-84
2024/04/20 06:21:32;;;;;;;2.38;1.67;;;;;;;10.89;59.27;99168.31;5199656;27;95989;-85
2024/04/20 06:23:58;;;;;;;1.90;1.50;;;;;;;11.30;59.31;99217.75;5204335;27;97602;-85
2024/04/20 06:26:23;;;;;;;2.60;1.75;;;;;;;11.24;59.16;99225.97;5228272;27;94662;-84
2024/04/20 06:28:49;;;;;;;3.03;2.00;;;;;;;11.65;58.37;99226.31;5197284;27;94652;-83
2024/04/20 06:31:14;;;;;;;2.40;1.85;;;;;;;11.75;57.67;99214.38;5228635;27;94638;-84
2024/04/20 06:33:40;;;;;;;4.13;1.40;;;;;;;11.35;57.73;99191.25;5200426;27;97505;-83
2024/04/20 06:36:06;;;;;;;4.65;1.42;;;;;;;11.43;57.99;99210.91;5228080;27;94794;-85
2024/04/20 06:38:31;;;;;;;2.00;1.67;;;;;;;11.46;58.19;99233.53;5232772;27;94703;-84
2024/04/20 06:41:01;;;;;;;2.78;1.40;;;;;;;11.28;58.21;99230.97;5201564;27;97874;-86
2024/04/20 06:43:26;;;;;;;1.67;1.30;;;;;;;11.28;58.28;99214.34;5199924;27;97559;-84
2024/04/20 06:45:52;;;;;;;1.75;1.50;;;;;;;11.36;58.18;99234.97;5205843;27;94735;-85
2024/04/20 06:48:17;;;;;;;2.75;1.65;;;;;;;11.29;58.29;99245.81;5189552;27;94706;-84
2024/04/20 06:50:43;;;;;;;1.40;1.30;;;;;;;11.43;57.73;99233.69;5235158;26;94681;-86
2024/04/20 06:53:08;;;;;;;2.25;1.60;;;;;;;11.41;57.81;99223.28;5201377;27;97863;-85
2024/04/20 06:55:34;;;;;;;1.67;1.38;;;;;;;11.41;57.95;99249.56;5204548;26;95356;-85
2024/04/20 06:57:59;;;;;;;1.90;1.63;;;;;;;11.53;58.09;99242.78;5232961;27;94792;-83
2024/04/20 07:00:25;;;;;;;2.30;1.25;;;;;;;11.36;57.58;99200.81;5235730;26;94692;-84
2024/04/20 07:02:50;;;;;;;1.90;1.55;;;;;;;11.91;56.84;99251.19;5233075;27;94673;-86
2024/04/20 07:05:16;;;;;;;4.97;1.80;;;;;;;11.79;56.86;99243.97;5232786;26;94705;-85
2024/04/20 07:07:41;;;;;;;3.25;1.70;;;;;;;11.49;57.25;99238.59;5236294;26;94628;-85
2024/04/20 07:10:07;;;;;;;3.33;1.85;;;;;;;11.42;56.98;99247.78;5229849;27;94463;-85
2024/04/20 07:12:32;;;;;;;5.28;1.95;;;;;;;11.63;56.69;99266.75;5207506;27;95194;-87
2024/04/20 07:14:58;;;;;;;3.83;1.85;;;;;;;11.88;56.69;99266.31;5229798;27;94728;-85
2024/04/20 07:17:23;;;;;;;2.20;1.33;;;;;;;11.85;56.22;99246.28;5237003;27;94672;-85
2024/04/20 07:19:49;;;;;;;2.25;1.00;;;;;;;12.03;55.43;99230.38;5223826;26;94606;-86
2024/04/20 07:22:15;;;;;;;1.10;1.00;;;;;;;12.04;55.82;99271.53;5233679;27;94838;-84
2024/04/20 07:24:40;;;;;;;1.73;0.88;;;;;;;12.07;55.47;99260.84;5206492;27;95250;-85
2024/04/20 07:27:06;;;;;;;2.13;1.08;;;;;;;12.26;55.00;99269.38;5234573;26;94638;-86
2024/04/20 07:29:31;;;;;;;1.55;1.10;;;;;;;11.61;55.37;99210.81;5173421;27;97603;-86
2024/04/20 07:31:57;;;;;;;1.40;1.10;;;;;;;12.10;55.21;99287.84;5176620;27;94604;-86
2024/04/20 07:34:29;;;;;;;2.38;1.40;;;;;;;12.49;54.71;99289.09;5227394;27;94753;-85
2024/04/20 07:36:56;;;;;;;1.15;0.98;;;;;;;12.67;53.90;99277.47;5170254;27;94634;-85
2024/04/20 07:39:23;;;;;;;3.47;1.40;;;;;;;12.93;53.52;99264.56;5173248;27;97755;-86
2024/04/20 07:41:49;;;;;;;2.50;1.42;;;;;;;13.45;52.46;99279.84;5232033;26;94624;-86
2024/04/20 07:44:15;;;;;;;2.08;1.15;;;;;;;13.68;52.23;99309.19;5205977;27;94689;-85
2024/04/20 07:46:43;;;;;;;1.38;1.10;;;;;;;12.69;53.34;99290.56;5203824;26;94676;-85
2024/04/20 07:49:08;;;;;;;1.30;1.17;;;;;;;12.12;54.99;99309.63;5234194;26;94823;-86
2024/04/20 07:51:35;;;;;;;2.13;1.65;;;;;;;12.16;54.97;99310.31;5175288;27;97586;-85
2024/04/20 07:54:01;;;;;;;1.40;1.02;;;;;;;12.19;55.26;99324.13;5230359;26;94742;-85
2024/04/20 07:56:26;;;;;;;1.80;0.88;;;;;;;12.18;55.05;99324.22;5233605;26;95087;-85
2024/04/20 07:58:52;;;;;;;1.20;1.10;;;;;;;13.26;52.97;99317.00;5189855;27;94645;-85
2024/04/20 08:01:17;;;;;;;0.90;0.80;;;;;;;14.36;50.50;99297.78;5200602;27;94719;-85
2024/04/20 08:03:44;;;;;;;1.17;0.80;;;;;;;13.90;51.64;99329.78;5193308;27;94613;-85
2024/04/20 08:06:09;;;;;;;1.55;1.13;;;;;;;13.14;53.17;99294.84;5213750;27;94638;-86
2024/04/20 08:08:36;;;;;;;0.80;0.70;;;;;;;12.97;53.71;99316.09;5224468;27;95297;-85
2024/04/20 08:11:01;;;;;;;2.78;0.95;;;;;;;12.73;53.99;99321.03;5205772;27;94688;-84
2024/04/20 08:13:28;;;;;;;1.52;1.08;;;;;;;12.81;54.46;99342.50;5234876;27;94621;-86
2024/04/20 08:15:54;;;;;;;3.83;1.52;;;;;;;12.78;54.77;99323.41;5200207;27;94620;-86
2024/04/20 08:18:19;;;;;;;2.10;1.00;;;;;;;13.12;53.61;99317.00;5201312;27;96931;-86
2024/04/20 08:20:52;;;;;;;4.15;1.15;;;;;;;13.58;53.14;99328.22;5202619;27;94672;-85
2024/04/20 08:23:17;;;;;;;0.90;0.70;;;;;;;13.69;52.98;99351.28;5178779;27;94700;-84
2024/04/20 08:25:43;;;;;;;0.60;0.60;;;;;;;13.70;52.87;99353.00;5230550;26;94571;-84
2024/04/20 08:28:09;;;;;;;3.15;0.70;;;;;;;13.61;53.52;99355.34;5200636;27;94663;-84
2024/04/20 08:30:34;;;;;;;1.15;1.00;;;;;;;13.29;53.74;99344.97;5226876;27;94823;-85
2024/04/20 08:33:00;;;;;;;0.80;0.80;;;;;;;12.93;53.73;99350.63;5207114;26;94790;-84
2024/04/20 08:35:25;;;;;;;2.97;1.17;;;;;;;12.88;53.83;99356.16;5194919;27;94616;-85
2024/04/20 08:37:51;;;;;;;2.47;0.70;;;;;;;12.80;53.72;99358.38;5189901;27;97530;-85
2024/04/20 08:40:17;;;;;;;1.45;1.00;;;;;;;12.74;54.03;99364.88;5198479;27;98246;-84
2024/04/20 08:42:42;;;;;;;5.50;1.83;;;;;;;12.73;54.38;99386.88;5193290;27;94640;-84
2024/04/20 08:45:14;;;;;;;4.22;1.48;;;;;;;12.24;55.14;99332.59;5227613;26;94689;-84
2024/04/20 08:47:40;;;;;;;;;;;;;;;12.32;55.68;99391.84;5207067;27;94111;-84
2024/04/20 08:50:06;;;;;;;3.13;1.80;;;;;;;12.51;55.44;99386.38;5236676;26;97744;-84
2024/04/20 08:52:32;;;;;;;3.60;1.40;;;;;;;12.64;55.17;99342.66;5216353;27;94663;-85
2024/04/20 08:54:58;;;;;;;2.35;1.40;;;;;;;13.20;54.26;99370.06;5199352;27;94643;-86
2024/04/20 08:57:24;;;;;;;1.45;1.00;;;;;;;13.24;53.50;99347.03;5188424;27;95013;-84
2024/04/20 08:59:52;;;;;;;2.33;1.15;;;;;;;13.01;54.13;99380.84;5213765;26;94676;-83
2024/04/20 09:02:28;;;;;;;2.00;1.63;;;;;;;12.72;55.58;99405.41;5219363;26;94732;-78
2024/04/20 09:04:56;;;;;;;1.70;1.30;;;;;;;12.58;55.92;99414.91;5230209;26;93770;-84
2024/04/20 09:07:23;;;;;;;1.85;1.30;;;;;;;12.53;56.36;99422.22;5198265;27;98234;-83
2024/04/20 09:09:49;;;;;;;2.45;1.33;;;;;;;12.23;56.65;99396.69;5210033;27;94721;-82
2024/04/20 09:12:15;;;;;;;1.90;1.70;;;;;;;11.95;57.48;99388.59;5192892;27;94681;-81
2024/04/20 09:14:40;;;;;;;1.77;1.20;;;;;;;12.11;57.72;99425.47;5196215;27;94654;-81
2024/04/20 09:17:06;;;;;;;1.92;1.40;;;;;;;12.05;57.84;99420.53;5200823;27;97553;-82
2024/04/20 09:19:31;;;;;;;2.20;1.67;;;;;;;12.16;56.99;99433.97;5196923;27;97777;-82
2024/04/20 09:22:08;;;;;;;1.73;1.20;;;;;;;12.25;57.35;99441.34;5221088;27;94712;-82
2024/04/20 09:24:34;;;;;;;1.92;1.20;;;;;;;12.17;57.22;99440.91;5231984;27;94746;-76
2024/04/20 09:26:59;;;;;;;2.10;1.33;;;;;;;12.05;57.33;99407.38;5210759;27;94599;-78
2024/04/20 09:29:25;;;;;;;2.63;1.83;;;;;;;12.16;57.52;99434.81;5187223;27;94755;-77
2024/04/20 09:31:54;;;;;;;1.40;1.30;;;;;;;11.91;57.92;99424.75;5220377;27;94611;-79
2024/04/20 09:34:23;;;;;;;1.75;1.17;;;;;;;11.67;58.28;99405.84;5230861;26;94704;-76
2024/04/20 09:36:49;;;;;;;2.70;1.70;;;;;;;11.47;58.96;99385.88;5222803;26;94122;-76
2024/04/20 09:39:14;;;;;;;2.42;1.73;;;;;;;11.60;58.85;99409.72;5219456;26;95018;-76
2024/04/20 09:41:47;;;;;;;4.07;2.17;;;;;;;11.96;58.59;99453.44;5187194;27;94616;-76
2024/04/20 09:44:14;;;;;;;1.92;1.40;;;;;;;11.97;57.99;99463.88;5174891;27;94612;-77
2024/04/20 09:46:46;;;;;;;1.80;1.10;;;;;;;11.98;57.95;99478.75;5197624;27;97225;-77
2024/04/20 09:49:12;;;;;;;1.45;1.35;;;;;;;12.05;57.70;99481.88;5210158;26;94791;-82
2024/04/20 09:51:47;;;;;;;1.65;1.10;;;;;;;12.21;57.36;99460.84;5167437;26;94623;-78
2024/04/20 09:54:15;;;;;;;1.45;0.90;;;;;;;12.43;56.75;99471.91;5211558;26;94536;-76
2024/04/20 09:56:42;;;;;;;2.75;1.50;;;;;;;12.59;57.13;99484.22;5228039;26;94692;-76
2024/04/20 09:59:08;;;;;;;1.25;1.08;;;;;;;12.88;56.71;99469.41;5221400;26;97790;-75
2024/04/20 10:01:35;;;;;;;1.77;1.23;;;;;;;13.30;56.65;99494.28;5257295;26;94699;-75
2024/04/20 10:04:00;;;;;;;1.35;1.25;;;;;;;13.61;55.59;99471.34;5250688;26;94606;-75
2024/04/20 10:06:27;;;;;;;1.67;1.23;;;;;;;13.58;55.05;99490.84;5202637;27;97631;-76
2024/04/20 10:08:52;;;;;;;3.03;1.77;;;;;;;13.25;56.73;99498.94;5199749;27;96209;-75
2024/04/20 10:11:19;;;;;;;3.03;1.70;;;;;;;13.14;56.76;99497.75;5199549;27;94659;-75
2024/04/20 10:13:47;;;;;;;2.83;1.50;;;;;;;12.97;57.11;99505.75;5201750;27;94680;-74
2024/04/20 10:16:14;;;;;;;2.15;1.05;;;;;;;12.90;57.12;99494.72;5204916;27;94557;-75
2024/04/20 10:18:39;;;;;;;3.53;1.45;;;;;;;12.89;57.29;99506.22;5227209;26;94800;-74
2024/04/20 10:21:05;;;;;;;2.85;1.58;;;;;;;12.74;57.34;99485.13;5201304;26;94978;-74
2024/04/20 10:23:30;;;;;;;1.20;1.08;;;;;;;12.64;57.69;99506.72;5176887;27;94624;-72
2024/04/20 10:25:56;;;;;;;1.65;1.30;;;;;;;12.79;57.43;99522.59;5218733;26;95428;-75
2024/04/20 10:28:30;;;;;;;3.63;1.20;;;;;;;12.60;57.18;99483.31;5232518;26;95242;-73
2024/04/20 10:30:57;;;;;;;2.88;1.70;;;;;;;12.99;56.81;99521.50;5251635;26;95098;-77
2024/04/20 10:33:31;;;;;;;3.00;2.22;;;;;;;13.05;57.02;99510.59;5225468;26;95055;-76
2024/04/20 10:35:58;;;;;;;4.20;1.92;;;;;;;12.50;58.21;99496.09;5201390;27;97699;-74
2024/04/20 10:38:33;;;;;;;2.53;1.75;;;;;;;12.49;57.96;99544.44;5197709;27;97235;-73
2024/04/20 10:41:14;;;;;;;3.10;1.65;;;;;;;12.21;58.41;99510.84;5190532;27;95097;-73
2024/04/20 10:43:40;;;;;;;3.05;1.17;;;;;;;12.31;57.56;99548.06;5216712;26;94663;-73
2024/04/20 10:46:08;;;;;;;1.90;1.33;;;;;;;12.52;57.22;99554.78;5221510;27;94692;-73
2024/04/20 10:48:40;;;;;;;1.75;1.35;;;;;;;12.45;57.35;99533.22;5228950;27;94620;-73
2024/04/20 10:51:08;;;;;;;5.28;1.30;;;;;;;12.56;57.04;99553.69;5229262;26;94696;-73
2024/04/20 10:53:33;;;;;;;3.00;1.75;;;;;;;12.36;57.72;99544.25;5233391;27;94679;-73
2024/04/20 10:55:59;;;;;;;3.92;3.00;;;;;;;12.39;57.71;99565.16;5201676;27;97611;-77
2024/04/20 10:58:26;;;;;;;2.08;1.85;;;;;;;12.36;57.47;99565.31;5219367;27;94554;-73
2024/04/20 11:00:56;;;;;;;2.22;1.67;;;;;;;12.20;57.88;99543.34;5169740;27;95546;-74
2024/04/20 11:03:22;;;;;;;2.53;1.58;;;;;;;12.11;57.70;99552.59;5215088;27;94690;-77
2024/04/20 11:05:55;;;;;;;2.95;1.75;;;;;;;12.18;58.46;99579.41;5225525;26;94633;-76
2024/04/20 11:08:23;;;;;;;3.47;2.30;;;;;;;12.10;58.43;99595.63;5221139;27;94940;-75
2024/04/20 11:10:58;;;;;;;3.15;2.42;;;;;;;12.00;58.31;99566.28;5194344;27;94645;-74
2024/04/20 11:13:24;;;;;;;2.72;2.17;;;;;;;12.01;58.70;99588.19;5213838;26;94699;-73
2024/04/20 11:15:50;;;;;;;6.47;3.15;;;;;;;12.12;58.93;99606.03;5232098;26;94697;-76
2024/04/20 11:18:19;;;;;;;5.38;2.85;;;;;;;12.14;58.97;99606.81;5230900;26;97084;-76
2024/04/20 11:20:45;;;;;;;3.50;2.85;;;;;;;11.92;58.61;99573.72;5201012;26;94792;-76
2024/04/20 11:23:10;;;;;;;7.13;3.80;;;;;;;12.05;59.08;99610.78;5204463;27;93714;-73
2024/04/20 11:25:36;;;;;;;5.93;3.60;;;;;;;11.87;59.89;99627.47;5212850;27;94480;-72
2024/04/20 11:28:02;;;;;;;5.20;3.20;;;;;;;11.26;60.92;99639.22;5204578;27;95398;-84
2024/04/20 11:30:29;;;;;;;5.00;3.58;;;;;;;11.25;60.50;99642.75;5196108;26;94620;-78
2024/04/20 11:32:57;;;;;;;3.78;2.42;;;;;;;11.28;60.47;99646.06;5214928;27;94624;-75